sensor_id;sensor_type;location;lat;lon;timestamp;temperature;humidity
17452;DHT22;8843;48.838;9.324;2023-07-29T00:01:24;19.40;91.50
17452;DHT22;8843;48.838;9.324;2023-07-29T00:03:51;19.40;91.40
17452;DHT22;8843;48.838;9.324;2023-07-29T00:06:17;19.40;91.40
17452;DHT22;8843;48.838;9.324;2023-07-29T00:08:46;19.40;91.70
17452;DHT22;8843;48.838;9.324;2023-07-29T00:11:12;19.40;91.40
17452;DHT22;8843;48.838;9.324;2023-07-29T00:13:39;19.40;91.30
17452;DHT22;8843;48.838;9.324;2023-07-29T00:16:06;19.40;91.20
17452;DHT22;8843;48.838;9.324;2023-07-29T00:18:33;19.40;91.40
17452;DHT22;8843;48.838;9.324;2023-07-29T00:21:00;19.40;91.80
17452;DHT22;8843;48.838;9.324;2023-07-29T00:23:27;19.40;91.50
17452;DHT22;8843;48.838;9.324;2023-07-29T00:25:55;19.40;91.30
17452;DHT22;8843;48.838;9.324;2023-07-29T00:28:22;19.40;92.00
17452;DHT22;8843;48.838;9.324;2023-07-29T00:30:49;19.40;91.90
17452;DHT22;8843;48.838;9.324;2023-07-29T00:33:16;19.40;92.40
17452;DHT22;8843;48.838;9.324;2023-07-29T00:35:43;19.40;91.30
17452;DHT22;8843;48.838;9.324;2023-07-29T00:38:10;19.40;91.30
17452;DHT22;8843;48.838;9.324;2023-07-29T00:40:36;19.40;91.50
17452;DHT22;8843;48.838;9.324;2023-07-29T00:43:05;19.40;91.80
17452;DHT22;8843;48.838;9.324;2023-07-29T00:45:32;19.40;91.20
17452;DHT22;8843;48.838;9.324;2023-07-29T00:48:00;19.40;91.10
17452;DHT22;8843;48.838;9.324;2023-07-29T00:50:27;19.40;91.60
17452;DHT22;8843;48.838;9.324;2023-07-29T00:52:55;19.40;91.40
17452;DHT22;8843;48.838;9.324;2023-07-29T00:55:23;19.40;91.20
17452;DHT22;8843;48.838;9.324;2023-07-29T00:57:51;19.40;91.60
17452;DHT22;8843;48.838;9.324;2023-07-29T01:00:21;19.40;91.10
17452;DHT22;8843;48.838;9.324;2023-07-29T01:02:48;19.40;90.80
17452;DHT22;8843;48.838;9.324;2023-07-29T01:05:16;19.40;90.90
17452;DHT22;8843;48.838;9.324;2023-07-29T01:07:49;19.40;91.00
17452;DHT22;8843;48.838;9.324;2023-07-29T01:10:25;19.40;91.20
17452;DHT22;8843;48.838;9.324;2023-07-29T01:12:59;19.40;91.80
17452;DHT22;8843;48.838;9.324;2023-07-29T01:15:36;19.40;91.30
17452;DHT22;8843;48.838;9.324;2023-07-29T01:18:09;19.40;91.20
17452;DHT22;8843;48.838;9.324;2023-07-29T01:20:40;19.40;91.40
17452;DHT22;8843;48.838;9.324;2023-07-29T01:23:07;19.40;91.40
17452;DHT22;8843;48.838;9.324;2023-07-29T01:25:35;19.30;91.20
17452;DHT22;8843;48.838;9.324;2023-07-29T01:28:02;19.30;91.30
17452;DHT22;8843;48.838;9.324;2023-07-29T01:30:31;19.40;91.20
17452;DHT22;8843;48.838;9.324;2023-07-29T01:33:02;19.40;91.40
17452;DHT22;8843;48.838;9.324;2023-07-29T01:35:33;19.40;90.80
17452;DHT22;8843;48.838;9.324;2023-07-29T01:38:05;19.40;90.80
17452;DHT22;8843;48.838;9.324;2023-07-29T01:40:35;19.40;90.90
17452;DHT22;8843;48.838;9.324;2023-07-29T01:43:02;19.40;91.00
17452;DHT22;8843;48.838;9.324;2023-07-29T01:45:29;19.40;91.00
17452;DHT22;8843;48.838;9.324;2023-07-29T01:48:00;19.40;90.70
17452;DHT22;8843;48.838;9.324;2023-07-29T01:50:27;19.40;90.90
17452;DHT22;8843;48.838;9.324;2023-07-29T01:52:54;19.40;91.00
17452;DHT22;8843;48.838;9.324;2023-07-29T01:55:21;19.30;90.70
17452;DHT22;8843;48.838;9.324;2023-07-29T01:57:49;19.40;90.80
17452;DHT22;8843;48.838;9.324;2023-07-29T02:00:17;19.40;90.70
17452;DHT22;8843;48.838;9.324;2023-07-29T02:02:44;19.40;90.90
17452;DHT22;8843;48.838;9.324;2023-07-29T02:05:11;19.40;91.30
17452;DHT22;8843;48.838;9.324;2023-07-29T02:07:38;19.30;91.50
17452;DHT22;8843;48.838;9.324;2023-07-29T02:10:06;19.30;91.30
17452;DHT22;8843;48.838;9.324;2023-07-29T02:12:33;19.30;90.60
17452;DHT22;8843;48.838;9.324;2023-07-29T02:15:01;19.30;90.70
17452;DHT22;8843;48.838;9.324;2023-07-29T02:17:28;19.30;90.80
17452;DHT22;8843;48.838;9.324;2023-07-29T02:19:55;19.30;90.90
17452;DHT22;8843;48.838;9.324;2023-07-29T02:22:22;19.30;91.30
17452;DHT22;8843;48.838;9.324;2023-07-29T02:24:49;19.30;90.90
17452;DHT22;8843;48.838;9.324;2023-07-29T02:27:16;19.30;91.00
17452;DHT22;8843;48.838;9.324;2023-07-29T02:29:42;19.30;90.60
17452;DHT22;8843;48.838;9.324;2023-07-29T02:32:11;19.30;90.60
17452;DHT22;8843;48.838;9.324;2023-07-29T02:34:38;19.30;90.80
17452;DHT22;8843;48.838;9.324;2023-07-29T02:37:04;19.30;91.20
17452;DHT22;8843;48.838;9.324;2023-07-29T02:39:31;19.30;91.40
17452;DHT22;8843;48.838;9.324;2023-07-29T02:41:58;19.30;91.40
17452;DHT22;8843;48.838;9.324;2023-07-29T02:44:25;19.30;90.60
17452;DHT22;8843;48.838;9.324;2023-07-29T02:46:52;19.30;90.50
17452;DHT22;8843;48.838;9.324;2023-07-29T02:49:22;19.30;90.80
17452;DHT22;8843;48.838;9.324;2023-07-29T02:51:49;19.30;91.10
17452;DHT22;8843;48.838;9.324;2023-07-29T02:54:16;19.30;90.40
17452;DHT22;8843;48.838;9.324;2023-07-29T02:56:43;19.30;90.50
17452;DHT22;8843;48.838;9.324;2023-07-29T02:59:10;19.30;90.40
17452;DHT22;8843;48.838;9.324;2023-07-29T03:01:37;19.30;90.50
17452;DHT22;8843;48.838;9.324;2023-07-29T03:04:04;19.30;90.80
17452;DHT22;8843;48.838;9.324;2023-07-29T03:06:32;19.30;90.40
17452;DHT22;8843;48.838;9.324;2023-07-29T03:08:59;19.30;90.70
17452;DHT22;8843;48.838;9.324;2023-07-29T03:11:25;19.30;90.40
17452;DHT22;8843;48.838;9.324;2023-07-29T03:13:52;19.30;90.60
17452;DHT22;8843;48.838;9.324;2023-07-29T03:16:19;19.30;90.60
17452;DHT22;8843;48.838;9.324;2023-07-29T03:18:48;19.30;90.30
17452;DHT22;8843;48.838;9.324;2023-07-29T03:21:15;19.30;90.20
17452;DHT22;8843;48.838;9.324;2023-07-29T03:23:43;19.30;90.30
17452;DHT22;8843;48.838;9.324;2023-07-29T03:26:10;19.30;90.30
17452;DHT22;8843;48.838;9.324;2023-07-29T03:28:38;19.30;90.30
17452;DHT22;8843;48.838;9.324;2023-07-29T03:31:05;19.30;90.20
17452;DHT22;8843;48.838;9.324;2023-07-29T03:33:33;19.30;90.20
17452;DHT22;8843;48.838;9.324;2023-07-29T03:36:00;19.30;90.10
17452;DHT22;8843;48.838;9.324;2023-07-29T03:38:26;19.30;90.20
17452;DHT22;8843;48.838;9.324;2023-07-29T03:40:55;19.30;90.10
17452;DHT22;8843;48.838;9.324;2023-07-29T03:43:22;19.30;90.10
17452;DHT22;8843;48.838;9.324;2023-07-29T03:45:48;19.30;90.00
17452;DHT22;8843;48.838;9.324;2023-07-29T03:48:15;19.30;90.10
17452;DHT22;8843;48.838;9.324;2023-07-29T03:50:42;19.30;90.10
17452;DHT22;8843;48.838;9.324;2023-07-29T03:53:09;19.30;90.10
17452;DHT22;8843;48.838;9.324;2023-07-29T03:55:36;19.30;90.40
17452;DHT22;8843;48.838;9.324;2023-07-29T03:58:04;19.30;90.00
17452;DHT22;8843;48.838;9.324;2023-07-29T04:00:31;19.30;90.00
17452;DHT22;8843;48.838;9.324;2023-07-29T04:02:58;19.30;90.20
17452;DHT22;8843;48.838;9.324;2023-07-29T04:05:25;19.30;90.00
17452;DHT22;8843;48.838;9.324;2023-07-29T04:07:53;19.30;90.00
17452;DHT22;8843;48.838;9.324;2023-07-29T04:10:20;19.30;90.40
17452;DHT22;8843;48.838;9.324;2023-07-29T04:12:47;19.30;90.00
17452;DHT22;8843;48.838;9.324;2023-07-29T04:15:15;19.30;90.00
17452;DHT22;8843;48.838;9.324;2023-07-29T04:17:42;19.30;90.10
17452;DHT22;8843;48.838;9.324;2023-07-29T04:20:10;19.30;90.00
17452;DHT22;8843;48.838;9.324;2023-07-29T04:22:37;19.30;90.00
17452;DHT22;8843;48.838;9.324;2023-07-29T04:25:05;19.30;90.30
17452;DHT22;8843;48.838;9.324;2023-07-29T04:27:32;19.20;90.10
17452;DHT22;8843;48.838;9.324;2023-07-29T04:29:59;19.30;90.00
17452;DHT22;8843;48.838;9.324;2023-07-29T04:32:27;19.30;90.30
17452;DHT22;8843;48.838;9.324;2023-07-29T04:34:54;19.20;90.00
17452;DHT22;8843;48.838;9.324;2023-07-29T04:37:21;19.30;90.00
17452;DHT22;8843;48.838;9.324;2023-07-29T04:39:48;19.20;90.00
17452;DHT22;8843;48.838;9.324;2023-07-29T04:42:15;19.20;90.00
17452;DHT22;8843;48.838;9.324;2023-07-29T04:44:41;19.20;90.10
17452;DHT22;8843;48.838;9.324;2023-07-29T04:47:09;19.20;90.00
17452;DHT22;8843;48.838;9.324;2023-07-29T04:49:37;19.20;90.00
17452;DHT22;8843;48.838;9.324;2023-07-29T04:52:05;19.20;90.10
17452;DHT22;8843;48.838;9.324;2023-07-29T04:54:32;19.20;90.00
17452;DHT22;8843;48.838;9.324;2023-07-29T04:56:59;19.20;90.00
17452;DHT22;8843;48.838;9.324;2023-07-29T04:59:26;19.20;90.00
17452;DHT22;8843;48.838;9.324;2023-07-29T05:01:52;19.20;90.00
17452;DHT22;8843;48.838;9.324;2023-07-29T05:04:19;19.20;90.30
17452;DHT22;8843;48.838;9.324;2023-07-29T05:06:48;19.20;90.10
17452;DHT22;8843;48.838;9.324;2023-07-29T05:09:18;19.20;90.00
17452;DHT22;8843;48.838;9.324;2023-07-29T05:11:45;19.20;90.00
17452;DHT22;8843;48.838;9.324;2023-07-29T05:14:13;19.20;89.90
17452;DHT22;8843;48.838;9.324;2023-07-29T05:16:40;19.20;90.30
17452;DHT22;8843;48.838;9.324;2023-07-29T05:19:07;19.20;89.90
17452;DHT22;8843;48.838;9.324;2023-07-29T05:21:34;19.20;90.00
17452;DHT22;8843;48.838;9.324;2023-07-29T05:24:02;19.20;90.20
17452;DHT22;8843;48.838;9.324;2023-07-29T05:26:29;19.20;90.30
17452;DHT22;8843;48.838;9.324;2023-07-29T05:28:56;19.20;91.10
17452;DHT22;8843;48.838;9.324;2023-07-29T05:31:23;19.20;91.20
17452;DHT22;8843;48.838;9.324;2023-07-29T05:33:50;19.20;90.90
17452;DHT22;8843;48.838;9.324;2023-07-29T05:36:16;19.20;90.40
17452;DHT22;8843;48.838;9.324;2023-07-29T05:38:43;19.20;90.10
17452;DHT22;8843;48.838;9.324;2023-07-29T05:41:11;19.20;90.10
17452;DHT22;8843;48.838;9.324;2023-07-29T05:43:38;19.20;90.80
17452;DHT22;8843;48.838;9.324;2023-07-29T05:46:05;19.20;90.10
17452;DHT22;8843;48.838;9.324;2023-07-29T05:48:32;19.20;90.60
17452;DHT22;8843;48.838;9.324;2023-07-29T05:50:59;19.20;90.70
17452;DHT22;8843;48.838;9.324;2023-07-29T05:53:26;19.20;90.90
17452;DHT22;8843;48.838;9.324;2023-07-29T05:55:53;19.20;90.10
17452;DHT22;8843;48.838;9.324;2023-07-29T05:58:21;19.20;90.40
17452;DHT22;8843;48.838;9.324;2023-07-29T06:00:48;19.20;90.10
17452;DHT22;8843;48.838;9.324;2023-07-29T06:03:15;19.20;90.60
17452;DHT22;8843;48.838;9.324;2023-07-29T06:05:42;19.20;90.60
17452;DHT22;8843;48.838;9.324;2023-07-29T06:08:09;19.20;90.80
17452;DHT22;8843;48.838;9.324;2023-07-29T06:10:36;19.20;90.30
17452;DHT22;8843;48.838;9.324;2023-07-29T06:13:03;19.20;90.10
17452;DHT22;8843;48.838;9.324;2023-07-29T06:15:31;19.20;91.20
17452;DHT22;8843;48.838;9.324;2023-07-29T06:17:58;19.10;93.80
17452;DHT22;8843;48.838;9.324;2023-07-29T06:20:25;19.10;94.30
17452;DHT22;8843;48.838;9.324;2023-07-29T06:22:52;19.10;94.70
17452;DHT22;8843;48.838;9.324;2023-07-29T06:25:19;19.10;94.90
17452;DHT22;8843;48.838;9.324;2023-07-29T06:27:45;19.10;93.90
17452;DHT22;8843;48.838;9.324;2023-07-29T06:30:12;19.20;94.80
17452;DHT22;8843;48.838;9.324;2023-07-29T06:32:41;19.20;95.10
17452;DHT22;8843;48.838;9.324;2023-07-29T06:35:08;19.20;94.90
17452;DHT22;8843;48.838;9.324;2023-07-29T06:37:35;19.20;94.90
17452;DHT22;8843;48.838;9.324;2023-07-29T06:40:02;19.20;95.40
17452;DHT22;8843;48.838;9.324;2023-07-29T06:42:29;19.20;95.60
17452;DHT22;8843;48.838;9.324;2023-07-29T06:44:56;19.20;94.20
17452;DHT22;8843;48.838;9.324;2023-07-29T06:47:22;19.30;93.10
17452;DHT22;8843;48.838;9.324;2023-07-29T06:49:51;19.30;93.80
17452;DHT22;8843;48.838;9.324;2023-07-29T06:52:18;19.30;93.90
17452;DHT22;8843;48.838;9.324;2023-07-29T06:54:44;19.30;93.10
17452;DHT22;8843;48.838;9.324;2023-07-29T06:57:11;19.30;93.90
17452;DHT22;8843;48.838;9.324;2023-07-29T06:59:38;19.30;92.80
17452;DHT22;8843;48.838;9.324;2023-07-29T07:02:06;19.30;92.90
17452;DHT22;8843;48.838;9.324;2023-07-29T07:04:33;19.30;92.80
17452;DHT22;8843;48.838;9.324;2023-07-29T07:07:01;19.30;92.70
17452;DHT22;8843;48.838;9.324;2023-07-29T07:09:28;19.30;92.80
17452;DHT22;8843;48.838;9.324;2023-07-29T07:11:55;19.30;92.90
17452;DHT22;8843;48.838;9.324;2023-07-29T07:14:22;19.30;92.90
17452;DHT22;8843;48.838;9.324;2023-07-29T07:16:49;19.30;93.10
17452;DHT22;8843;48.838;9.324;2023-07-29T07:19:16;19.20;92.80
17452;DHT22;8843;48.838;9.324;2023-07-29T07:21:42;19.30;93.10
17452;DHT22;8843;48.838;9.324;2023-07-29T07:24:11;19.30;92.90
17452;DHT22;8843;48.838;9.324;2023-07-29T07:26:37;19.20;92.90
17452;DHT22;8843;48.838;9.324;2023-07-29T07:29:05;19.20;92.90
17452;DHT22;8843;48.838;9.324;2023-07-29T07:31:33;19.20;93.20
17452;DHT22;8843;48.838;9.324;2023-07-29T07:34:00;19.20;92.60
17452;DHT22;8843;48.838;9.324;2023-07-29T07:36:27;19.20;94.90
17452;DHT22;8843;48.838;9.324;2023-07-29T07:38:54;19.20;94.30
17452;DHT22;8843;48.838;9.324;2023-07-29T07:41:22;19.20;95.70
17452;DHT22;8843;48.838;9.324;2023-07-29T07:43:50;19.20;95.50
17452;DHT22;8843;48.838;9.324;2023-07-29T07:46:17;19.20;96.10
17452;DHT22;8843;48.838;9.324;2023-07-29T07:48:44;19.20;95.50
17452;DHT22;8843;48.838;9.324;2023-07-29T07:51:11;19.20;95.20
17452;DHT22;8843;48.838;9.324;2023-07-29T07:53:38;19.20;95.80
17452;DHT22;8843;48.838;9.324;2023-07-29T07:56:06;19.20;95.60
17452;DHT22;8843;48.838;9.324;2023-07-29T07:58:34;19.20;95.60
17452;DHT22;8843;48.838;9.324;2023-07-29T08:01:02;19.20;95.40
17452;DHT22;8843;48.838;9.324;2023-07-29T08:03:29;19.20;95.30
17452;DHT22;8843;48.838;9.324;2023-07-29T08:05:56;19.20;95.90
17452;DHT22;8843;48.838;9.324;2023-07-29T08:08:23;19.20;95.60
17452;DHT22;8843;48.838;9.324;2023-07-29T08:10:50;19.20;95.80
17452;DHT22;8843;48.838;9.324;2023-07-29T08:13:17;19.20;95.80
17452;DHT22;8843;48.838;9.324;2023-07-29T08:15:47;19.20;96.60
17452;DHT22;8843;48.838;9.324;2023-07-29T08:18:14;19.20;96.60
17452;DHT22;8843;48.838;9.324;2023-07-29T08:20:50;19.20;96.20
17452;DHT22;8843;48.838;9.324;2023-07-29T08:23:17;19.20;96.50
17452;DHT22;8843;48.838;9.324;2023-07-29T08:25:44;19.20;96.80
17452;DHT22;8843;48.838;9.324;2023-07-29T08:28:11;19.30;97.10
17452;DHT22;8843;48.838;9.324;2023-07-29T08:30:38;19.40;98.00
17452;DHT22;8843;48.838;9.324;2023-07-29T08:33:06;19.40;97.60
17452;DHT22;8843;48.838;9.324;2023-07-29T08:35:33;19.40;97.70
17452;DHT22;8843;48.838;9.324;2023-07-29T08:38:00;19.50;97.60
17452;DHT22;8843;48.838;9.324;2023-07-29T08:40:29;19.50;97.80
17452;DHT22;8843;48.838;9.324;2023-07-29T08:42:57;19.50;97.80
17452;DHT22;8843;48.838;9.324;2023-07-29T08:45:25;19.50;98.00
17452;DHT22;8843;48.838;9.324;2023-07-29T08:47:54;19.50;97.80
17452;DHT22;8843;48.838;9.324;2023-07-29T08:50:26;19.50;97.70
17452;DHT22;8843;48.838;9.324;2023-07-29T08:52:53;19.60;97.50
17452;DHT22;8843;48.838;9.324;2023-07-29T08:55:21;19.60;98.40
17452;DHT22;8843;48.838;9.324;2023-07-29T08:57:48;19.60;99.00
17452;DHT22;8843;48.838;9.324;2023-07-29T09:00:15;19.60;99.00
17452;DHT22;8843;48.838;9.324;2023-07-29T09:02:43;19.70;99.10
17452;DHT22;8843;48.838;9.324;2023-07-29T09:05:10;19.70;98.70
17452;DHT22;8843;48.838;9.324;2023-07-29T09:07:38;19.80;98.90
17452;DHT22;8843;48.838;9.324;2023-07-29T09:10:09;19.90;99.20
17452;DHT22;8843;48.838;9.324;2023-07-29T09:12:36;20.00;99.60
17452;DHT22;8843;48.838;9.324;2023-07-29T09:15:04;20.10;99.90
17452;DHT22;8843;48.838;9.324;2023-07-29T09:17:31;20.20;99.10
17452;DHT22;8843;48.838;9.324;2023-07-29T09:19:59;20.20;98.70
17452;DHT22;8843;48.838;9.324;2023-07-29T09:22:27;20.30;99.50
17452;DHT22;8843;48.838;9.324;2023-07-29T09:24:57;20.40;99.50
17452;DHT22;8843;48.838;9.324;2023-07-29T09:27:25;20.40;99.70
17452;DHT22;8843;48.838;9.324;2023-07-29T09:29:53;20.80;99.50
17452;DHT22;8843;48.838;9.324;2023-07-29T09:32:20;21.30;99.90
17452;DHT22;8843;48.838;9.324;2023-07-29T09:34:48;21.40;98.30
17452;DHT22;8843;48.838;9.324;2023-07-29T09:37:21;21.50;98.50
17452;DHT22;8843;48.838;9.324;2023-07-29T09:39:49;21.50;98.40
17452;DHT22;8843;48.838;9.324;2023-07-29T09:42:19;21.50;96.20
17452;DHT22;8843;48.838;9.324;2023-07-29T09:44:47;21.30;98.10
17452;DHT22;8843;48.838;9.324;2023-07-29T09:47:25;21.40;98.90
17452;DHT22;8843;48.838;9.324;2023-07-29T09:49:53;21.30;97.40
17452;DHT22;8843;48.838;9.324;2023-07-29T09:52:22;21.30;98.40
17452;DHT22;8843;48.838;9.324;2023-07-29T09:54:49;21.30;98.40
17452;DHT22;8843;48.838;9.324;2023-07-29T09:57:18;21.20;97.80
17452;DHT22;8843;48.838;9.324;2023-07-29T09:59:54;21.00;95.80
17452;DHT22;8843;48.838;9.324;2023-07-29T10:02:21;21.10;97.60
17452;DHT22;8843;48.838;9.324;2023-07-29T10:04:48;20.90;96.30
17452;DHT22;8843;48.838;9.324;2023-07-29T10:07:16;21.00;96.10
17452;DHT22;8843;48.838;9.324;2023-07-29T10:09:44;20.90;96.00
17452;DHT22;8843;48.838;9.324;2023-07-29T10:12:11;21.10;95.50
17452;DHT22;8843;48.838;9.324;2023-07-29T10:14:41;21.10;96.40
17452;DHT22;8843;48.838;9.324;2023-07-29T10:17:09;21.00;95.40
17452;DHT22;8843;48.838;9.324;2023-07-29T10:19:37;21.20;97.40
17452;DHT22;8843;48.838;9.324;2023-07-29T10:22:05;21.10;94.80
17452;DHT22;8843;48.838;9.324;2023-07-29T10:24:33;21.10;95.10
17452;DHT22;8843;48.838;9.324;2023-07-29T10:27:01;21.10;96.50
17452;DHT22;8843;48.838;9.324;2023-07-29T10:29:31;21.60;96.80
17452;DHT22;8843;48.838;9.324;2023-07-29T10:32:02;21.70;96.20
17452;DHT22;8843;48.838;9.324;2023-07-29T10:34:30;21.70;96.00
17452;DHT22;8843;48.838;9.324;2023-07-29T10:36:58;21.70;96.30
17452;DHT22;8843;48.838;9.324;2023-07-29T10:39:26;21.60;95.50
17452;DHT22;8843;48.838;9.324;2023-07-29T10:41:57;21.60;96.10
17452;DHT22;8843;48.838;9.324;2023-07-29T10:44:46;21.50;95.50
17452;DHT22;8843;48.838;9.324;2023-07-29T10:47:17;21.40;95.90
17452;DHT22;8843;48.838;9.324;2023-07-29T10:49:45;21.40;96.30
17452;DHT22;8843;48.838;9.324;2023-07-29T10:52:13;21.30;95.90
17452;DHT22;8843;48.838;9.324;2023-07-29T10:54:45;21.30;95.20
17452;DHT22;8843;48.838;9.324;2023-07-29T10:57:15;21.30;96.00
17452;DHT22;8843;48.838;9.324;2023-07-29T10:59:54;21.40;95.90
17452;DHT22;8843;48.838;9.324;2023-07-29T11:02:29;21.40;95.90
17452;DHT22;8843;48.838;9.324;2023-07-29T11:04:56;21.40;95.80
17452;DHT22;8843;48.838;9.324;2023-07-29T11:07:27;21.60;95.20
17452;DHT22;8843;48.838;9.324;2023-07-29T11:09:57;21.80;94.90
17452;DHT22;8843;48.838;9.324;2023-07-29T11:12:44;21.70;94.00
17452;DHT22;8843;48.838;9.324;2023-07-29T11:15:19;21.70;94.30
17452;DHT22;8843;48.838;9.324;2023-07-29T11:17:48;21.60;94.50
17452;DHT22;8843;48.838;9.324;2023-07-29T11:20:16;21.60;95.40
17452;DHT22;8843;48.838;9.324;2023-07-29T11:22:43;21.60;93.60
17452;DHT22;8843;48.838;9.324;2023-07-29T11:25:11;21.60;94.30
17452;DHT22;8843;48.838;9.324;2023-07-29T11:27:39;21.80;95.80
17452;DHT22;8843;48.838;9.324;2023-07-29T11:30:08;21.80;94.90
17452;DHT22;8843;48.838;9.324;2023-07-29T11:32:36;21.70;94.00
17452;DHT22;8843;48.838;9.324;2023-07-29T11:35:06;22.00;95.40
17452;DHT22;8843;48.838;9.324;2023-07-29T11:37:34;22.20;95.70
17452;DHT22;8843;48.838;9.324;2023-07-29T11:40:01;22.00;95.00
17452;DHT22;8843;48.838;9.324;2023-07-29T11:42:31;22.20;95.00
17452;DHT22;8843;48.838;9.324;2023-07-29T11:44:58;22.10;94.40
17452;DHT22;8843;48.838;9.324;2023-07-29T11:47:25;22.20;93.40
17452;DHT22;8843;48.838;9.324;2023-07-29T11:49:52;22.20;94.40
17452;DHT22;8843;48.838;9.324;2023-07-29T11:52:21;22.20;94.20
17452;DHT22;8843;48.838;9.324;2023-07-29T11:54:49;22.20;93.80
17452;DHT22;8843;48.838;9.324;2023-07-29T11:57:16;21.90;92.70
17452;DHT22;8843;48.838;9.324;2023-07-29T11:59:44;22.20;91.50
17452;DHT22;8843;48.838;9.324;2023-07-29T12:02:12;22.40;90.90
17452;DHT22;8843;48.838;9.324;2023-07-29T12:04:41;22.70;90.40
17452;DHT22;8843;48.838;9.324;2023-07-29T12:07:08;22.80;89.60
17452;DHT22;8843;48.838;9.324;2023-07-29T12:09:37;22.90;91.50
17452;DHT22;8843;48.838;9.324;2023-07-29T12:12:05;22.70;91.10
17452;DHT22;8843;48.838;9.324;2023-07-29T12:14:32;22.50;93.00
17452;DHT22;8843;48.838;9.324;2023-07-29T12:17:00;22.50;92.00
17452;DHT22;8843;48.838;9.324;2023-07-29T12:19:32;22.50;93.40
17452;DHT22;8843;48.838;9.324;2023-07-29T12:22:00;22.60;93.50
17452;DHT22;8843;48.838;9.324;2023-07-29T12:24:26;22.60;93.10
17452;DHT22;8843;48.838;9.324;2023-07-29T12:26:55;22.60;92.10
17452;DHT22;8843;48.838;9.324;2023-07-29T12:29:22;23.10;88.10
17452;DHT22;8843;48.838;9.324;2023-07-29T12:31:53;23.70;87.70
17452;DHT22;8843;48.838;9.324;2023-07-29T12:34:25;23.90;87.20
17452;DHT22;8843;48.838;9.324;2023-07-29T12:36:52;24.10;85.80
17452;DHT22;8843;48.838;9.324;2023-07-29T12:39:22;24.00;85.90
17452;DHT22;8843;48.838;9.324;2023-07-29T12:41:50;23.80;87.70
17452;DHT22;8843;48.838;9.324;2023-07-29T12:44:19;23.40;89.40
17452;DHT22;8843;48.838;9.324;2023-07-29T12:46:46;23.20;90.80
17452;DHT22;8843;48.838;9.324;2023-07-29T12:49:13;23.30;91.30
17452;DHT22;8843;48.838;9.324;2023-07-29T12:51:40;23.30;91.00
17452;DHT22;8843;48.838;9.324;2023-07-29T12:54:07;23.30;91.00
17452;DHT22;8843;48.838;9.324;2023-07-29T12:56:34;23.20;90.90
17452;DHT22;8843;48.838;9.324;2023-07-29T12:59:01;23.10;88.70
17452;DHT22;8843;48.838;9.324;2023-07-29T13:01:30;23.00;89.70
17452;DHT22;8843;48.838;9.324;2023-07-29T13:03:57;23.20;89.70
17452;DHT22;8843;48.838;9.324;2023-07-29T13:06:24;23.00;88.20
17452;DHT22;8843;48.838;9.324;2023-07-29T13:08:51;23.20;87.20
17452;DHT22;8843;48.838;9.324;2023-07-29T13:11:18;23.20;88.30
17452;DHT22;8843;48.838;9.324;2023-07-29T13:13:46;23.10;86.90
17452;DHT22;8843;48.838;9.324;2023-07-29T13:16:13;23.30;86.70
17452;DHT22;8843;48.838;9.324;2023-07-29T13:18:41;23.20;86.80
17452;DHT22;8843;48.838;9.324;2023-07-29T13:21:09;23.30;86.10
17452;DHT22;8843;48.838;9.324;2023-07-29T13:23:36;23.30;85.90
17452;DHT22;8843;48.838;9.324;2023-07-29T13:26:03;23.40;85.30
17452;DHT22;8843;48.838;9.324;2023-07-29T13:28:30;23.70;87.30
17452;DHT22;8843;48.838;9.324;2023-07-29T13:30:57;23.70;85.70
17452;DHT22;8843;48.838;9.324;2023-07-29T13:33:24;23.50;86.20
17452;DHT22;8843;48.838;9.324;2023-07-29T13:35:52;23.70;85.90
17452;DHT22;8843;48.838;9.324;2023-07-29T13:38:19;23.90;85.80
17452;DHT22;8843;48.838;9.324;2023-07-29T13:40:46;24.00;84.30
17452;DHT22;8843;48.838;9.324;2023-07-29T13:43:16;23.80;84.70
17452;DHT22;8843;48.838;9.324;2023-07-29T13:45:43;23.90;84.80
17452;DHT22;8843;48.838;9.324;2023-07-29T13:48:10;23.60;83.70
17452;DHT22;8843;48.838;9.324;2023-07-29T13:50:36;23.40;84.30
17452;DHT22;8843;48.838;9.324;2023-07-29T13:53:05;23.50;84.40
17452;DHT22;8843;48.838;9.324;2023-07-29T13:55:32;23.60;85.20
17452;DHT22;8843;48.838;9.324;2023-07-29T13:57:59;23.60;84.20
17452;DHT22;8843;48.838;9.324;2023-07-29T14:00:26;23.90;78.50
17452;DHT22;8843;48.838;9.324;2023-07-29T14:02:53;24.10;77.50
17452;DHT22;8843;48.838;9.324;2023-07-29T14:05:20;24.00;81.10
17452;DHT22;8843;48.838;9.324;2023-07-29T14:07:47;23.60;80.90
17452;DHT22;8843;48.838;9.324;2023-07-29T14:10:15;23.40;81.50
17452;DHT22;8843;48.838;9.324;2023-07-29T14:12:42;23.30;78.40
17452;DHT22;8843;48.838;9.324;2023-07-29T14:15:09;23.50;81.70
17452;DHT22;8843;48.838;9.324;2023-07-29T14:17:36;23.40;81.80
17452;DHT22;8843;48.838;9.324;2023-07-29T14:20:04;23.30;82.40
17452;DHT22;8843;48.838;9.324;2023-07-29T14:22:31;23.40;82.70
17452;DHT22;8843;48.838;9.324;2023-07-29T14:24:58;23.20;81.60
17452;DHT22;8843;48.838;9.324;2023-07-29T14:27:26;23.20;82.80
17452;DHT22;8843;48.838;9.324;2023-07-29T14:29:53;23.10;82.90
17452;DHT22;8843;48.838;9.324;2023-07-29T14:32:20;23.10;82.60
17452;DHT22;8843;48.838;9.324;2023-07-29T14:34:46;23.10;82.00
17452;DHT22;8843;48.838;9.324;2023-07-29T14:37:14;23.10;82.70
17452;DHT22;8843;48.838;9.324;2023-07-29T14:39:41;23.40;83.30
17452;DHT22;8843;48.838;9.324;2023-07-29T14:42:08;23.20;82.00
17452;DHT22;8843;48.838;9.324;2023-07-29T14:44:36;23.40;82.20
17452;DHT22;8843;48.838;9.324;2023-07-29T14:47:03;23.30;81.20
17452;DHT22;8843;48.838;9.324;2023-07-29T14:49:30;23.30;82.10
17452;DHT22;8843;48.838;9.324;2023-07-29T14:51:57;23.10;82.20
17452;DHT22;8843;48.838;9.324;2023-07-29T14:54:24;23.10;82.90
17452;DHT22;8843;48.838;9.324;2023-07-29T14:56:51;23.00;82.80
17452;DHT22;8843;48.838;9.324;2023-07-29T14:59:18;23.20;83.20
17452;DHT22;8843;48.838;9.324;2023-07-29T15:01:46;23.10;82.40
17452;DHT22;8843;48.838;9.324;2023-07-29T15:04:13;23.00;82.80
17452;DHT22;8843;48.838;9.324;2023-07-29T15:06:40;23.00;83.00
17452;DHT22;8843;48.838;9.324;2023-07-29T15:09:06;22.90;82.60
17452;DHT22;8843;48.838;9.324;2023-07-29T15:11:33;22.80;83.70
17452;DHT22;8843;48.838;9.324;2023-07-29T15:14:00;22.70;82.90
17452;DHT22;8843;48.838;9.324;2023-07-29T15:16:29;22.70;82.80
17452;DHT22;8843;48.838;9.324;2023-07-29T15:18:57;22.80;83.00
17452;DHT22;8843;48.838;9.324;2023-07-29T15:21:24;22.60;83.60
17452;DHT22;8843;48.838;9.324;2023-07-29T15:23:51;22.80;84.10
17452;DHT22;8843;48.838;9.324;2023-07-29T15:26:18;22.70;82.60
17452;DHT22;8843;48.838;9.324;2023-07-29T15:28:45;22.70;83.00
17452;DHT22;8843;48.838;9.324;2023-07-29T15:31:13;22.60;83.10
17452;DHT22;8843;48.838;9.324;2023-07-29T15:33:40;22.70;83.10
17452;DHT22;8843;48.838;9.324;2023-07-29T15:36:08;22.70;84.30
17452;DHT22;8843;48.838;9.324;2023-07-29T15:38:35;22.80;83.50
17452;DHT22;8843;48.838;9.324;2023-07-29T15:41:02;22.80;83.50
17452;DHT22;8843;48.838;9.324;2023-07-29T15:43:29;23.00;83.70
17452;DHT22;8843;48.838;9.324;2023-07-29T15:45:56;22.90;83.00
17452;DHT22;8843;48.838;9.324;2023-07-29T15:48:23;22.80;83.00